< < Back
Terminal Aerodrome Forecast


Current Version              Previous Versions:   1  2  3  4  5  6  7  8  9  

Terminal Aerodrome Forecast

489
FTAK31 PAJN 052330
TAFAGS
TAF
PAGS 052330Z 0600/0624 12011G18KT P6SM -RA SCT020 OVC040
     FM060200 15013G23KT 6SM -RA BR BKN020 OVC035
     FM061000 12014G26KT 5SM RA BR SCT010 OVC020 WS020/14035KT
     FM062100 12012KT 6SM -RA BR SCT015 OVC030
      AMD LTD TO CLD VIS AND WIND=

Latest METAR

091
SAUS70 KWBC 060100 RRI
MTRAGS
METAR KAGS 060053Z 29010KT 10SM CLR 12/07 A2975 RMK AO2 SLP073
T01220072


USA.gov is the U.S. government's official web portal to all federal, state and local government web resources and services.